createdAt,value
2022-12-22T00:02:29.696Z,11.40
2022-12-22T00:05:12.693Z,11.40
2022-12-22T00:07:55.328Z,11.40
2022-12-22T00:10:38.020Z,11.40
2022-12-22T00:13:26.290Z,11.40
2022-12-22T00:16:09.126Z,11.40
2022-12-22T00:18:51.916Z,11.50
2022-12-22T00:21:34.652Z,11.50
2022-12-22T00:24:17.282Z,11.50
2022-12-22T00:27:01.135Z,11.50
2022-12-22T00:29:52.301Z,11.50
2022-12-22T00:32:35.489Z,11.50
2022-12-22T00:35:18.298Z,11.50
2022-12-22T00:38:01.198Z,11.50
2022-12-22T00:40:44.552Z,11.50
2022-12-22T00:43:27.335Z,11.50
2022-12-22T00:46:14.223Z,11.50
2022-12-22T00:48:58.553Z,11.50
2022-12-22T00:51:41.801Z,11.50
2022-12-22T00:54:25.406Z,11.50
2022-12-22T00:57:08.117Z,11.50
2022-12-22T00:59:51.512Z,11.50
2022-12-22T01:02:37.072Z,11.50
2022-12-22T01:05:20.681Z,11.50
2022-12-22T01:08:03.361Z,11.50
2022-12-22T01:10:46.177Z,11.50
2022-12-22T01:13:29.867Z,11.50
2022-12-22T01:16:12.848Z,11.50
2022-12-22T01:18:58.492Z,11.50
2022-12-22T01:21:41.238Z,11.50
2022-12-22T01:24:28.046Z,11.50
2022-12-22T01:27:10.722Z,11.50
2022-12-22T01:29:53.372Z,11.50
2022-12-22T01:32:36.055Z,11.50
2022-12-22T01:35:25.881Z,11.50
2022-12-22T01:38:08.559Z,11.50
2022-12-22T01:40:51.193Z,11.50
2022-12-22T01:43:37.156Z,11.50
2022-12-22T01:46:38.449Z,11.50
2022-12-22T01:49:25.397Z,11.50
2022-12-22T01:52:11.100Z,11.60
2022-12-22T01:54:54.070Z,11.60
2022-12-22T01:57:36.829Z,11.50
2022-12-22T02:00:20.952Z,11.50
2022-12-22T02:03:03.613Z,11.60
2022-12-22T02:05:48.639Z,11.60
2022-12-22T02:08:39.380Z,11.60
2022-12-22T02:11:36.352Z,11.50
2022-12-22T02:14:31.050Z,11.60
2022-12-22T02:17:22.719Z,11.60
2022-12-22T02:20:39.096Z,11.60
2022-12-22T02:23:29.117Z,11.60
2022-12-22T02:26:30.907Z,11.60
2022-12-22T02:29:14.273Z,11.60
2022-12-22T02:31:57.551Z,11.60
2022-12-22T02:34:40.378Z,11.60
2022-12-22T02:37:31.927Z,11.60
2022-12-22T02:40:27.844Z,11.60
2022-12-22T02:43:22.319Z,11.70
2022-12-22T02:46:11.111Z,11.60
2022-12-22T02:48:59.295Z,11.60
2022-12-22T02:51:46.600Z,11.60
2022-12-22T02:54:31.645Z,11.70
2022-12-22T02:57:17.247Z,11.70
2022-12-22T03:00:02.538Z,11.70
2022-12-22T03:02:45.353Z,11.70
2022-12-22T03:05:28.132Z,11.70
2022-12-22T03:08:10.876Z,11.70
2022-12-22T03:10:53.689Z,11.70
2022-12-22T03:13:36.391Z,11.70
2022-12-22T03:16:21.726Z,11.70
2022-12-22T03:19:04.486Z,11.70
2022-12-22T03:21:47.138Z,11.70
2022-12-22T03:24:29.948Z,11.70
2022-12-22T03:27:00.234Z,11.70
2022-12-22T03:29:30.652Z,11.70
2022-12-22T03:32:03.610Z,11.70
2022-12-22T03:34:33.972Z,11.70
2022-12-22T03:37:04.258Z,11.70
2022-12-22T03:39:34.643Z,11.70
2022-12-22T03:42:17.448Z,11.70
2022-12-22T03:45:00.141Z,11.70
2022-12-22T03:47:34.277Z,11.60
2022-12-22T03:50:04.607Z,11.70
2022-12-22T03:52:34.926Z,11.70
2022-12-22T03:55:05.252Z,11.60
2022-12-22T03:57:35.594Z,11.60
2022-12-22T04:00:06.247Z,11.60
2022-12-22T04:02:44.972Z,11.60
2022-12-22T04:05:15.576Z,11.60
2022-12-22T04:07:45.916Z,11.60
2022-12-22T04:10:28.575Z,11.60
2022-12-22T04:12:58.941Z,11.60
2022-12-22T04:15:31.251Z,11.60
2022-12-22T04:18:04.178Z,11.60
2022-12-22T04:20:34.649Z,11.60
2022-12-22T04:23:05.246Z,11.60
2022-12-22T04:25:35.800Z,11.60
2022-12-22T04:28:06.237Z,11.60
2022-12-22T04:30:36.678Z,11.60
2022-12-22T04:33:09.647Z,11.60
2022-12-22T04:35:40.139Z,11.60
2022-12-22T04:38:10.438Z,11.60
2022-12-22T04:40:41.002Z,11.70
2022-12-22T04:43:11.348Z,11.60
2022-12-22T04:45:41.745Z,11.60
2022-12-22T04:48:14.918Z,11.70
2022-12-22T04:50:45.327Z,11.70
2022-12-22T04:53:15.772Z,11.70
2022-12-22T04:55:48.952Z,11.70
2022-12-22T04:58:19.565Z,11.70
2022-12-22T05:00:50.164Z,11.60
2022-12-22T05:03:23.350Z,11.60
2022-12-22T05:05:54.049Z,11.60
2022-12-22T05:08:24.383Z,11.60
2022-12-22T05:10:54.713Z,11.50
2022-12-22T05:13:25.174Z,11.50
2022-12-22T05:15:55.571Z,11.50
2022-12-22T05:18:28.480Z,11.50
2022-12-22T05:20:58.787Z,11.60
2022-12-22T05:23:29.114Z,11.60
2022-12-22T05:25:59.447Z,11.50
2022-12-22T05:28:29.744Z,11.60
2022-12-22T05:31:00.202Z,11.60
2022-12-22T05:33:33.126Z,11.60
2022-12-22T05:36:03.528Z,11.60
2022-12-22T05:38:33.798Z,11.60
2022-12-22T05:41:04.953Z,11.60
2022-12-22T05:43:35.729Z,11.60
2022-12-22T05:46:06.931Z,11.50
2022-12-22T05:48:40.814Z,11.60
2022-12-22T05:51:13.084Z,11.50
2022-12-22T05:53:43.915Z,11.50
2022-12-22T05:56:14.345Z,11.50
2022-12-22T05:58:44.772Z,11.50
2022-12-22T06:01:15.147Z,11.50
2022-12-22T06:03:48.193Z,11.40
2022-12-22T06:06:18.616Z,11.40
2022-12-22T06:08:48.953Z,11.40
2022-12-22T06:11:20.077Z,11.40
2022-12-22T06:13:50.625Z,11.40
2022-12-22T06:16:21.059Z,11.40
2022-12-22T06:18:54.057Z,11.40
2022-12-22T06:21:24.483Z,11.40
2022-12-22T06:23:55.183Z,11.40
2022-12-22T06:26:25.538Z,11.40
2022-12-22T06:28:55.876Z,11.30
2022-12-22T06:31:26.891Z,11.40
2022-12-22T06:33:59.910Z,11.30
2022-12-22T06:36:30.237Z,11.30
2022-12-22T06:39:00.696Z,11.30
2022-12-22T06:41:43.479Z,11.30
2022-12-22T06:44:13.905Z,11.20
2022-12-22T06:46:44.337Z,11.20
2022-12-22T06:49:17.405Z,11.20
2022-12-22T06:51:47.973Z,11.20
2022-12-22T06:54:24.055Z,11.20
2022-12-22T06:56:56.633Z,11.20
2022-12-22T06:59:27.048Z,11.20
2022-12-22T07:01:59.479Z,11.20
2022-12-22T07:04:32.707Z,11.10
2022-12-22T07:07:03.207Z,11.20
2022-12-22T07:09:33.687Z,11.30
2022-12-22T07:12:04.028Z,11.20
2022-12-22T07:14:34.394Z,11.20
2022-12-22T07:17:04.793Z,11.20
2022-12-22T07:19:37.757Z,11.20
2022-12-22T07:22:08.138Z,11.20
2022-12-22T07:24:38.547Z,11.10
2022-12-22T07:27:08.981Z,11.10
2022-12-22T07:29:40.745Z,11.10
2022-12-22T07:32:11.142Z,11.10
2022-12-22T07:34:44.116Z,11.20
2022-12-22T07:37:15.033Z,11.20
2022-12-22T07:39:45.395Z,11.10
2022-12-22T07:42:28.279Z,11.10
2022-12-22T07:44:58.811Z,11.10
2022-12-22T07:47:34.993Z,11.10
2022-12-22T07:50:22.224Z,11.10
2022-12-22T07:52:52.582Z,11.00
2022-12-22T07:55:23.282Z,11.10
2022-12-22T07:57:54.132Z,11.00
2022-12-22T08:00:25.714Z,11.10
2022-12-22T08:02:58.939Z,11.10
2022-12-22T08:05:32.069Z,11.00
2022-12-22T08:08:02.577Z,11.00
2022-12-22T08:10:33.032Z,11.00
2022-12-22T08:13:03.389Z,11.00
2022-12-22T08:15:33.995Z,11.00
2022-12-22T08:18:04.348Z,11.00
2022-12-22T08:20:37.446Z,10.90
2022-12-22T08:23:07.921Z,10.90
2022-12-22T08:25:38.605Z,10.90
2022-12-22T08:28:09.062Z,10.90
2022-12-22T08:30:39.439Z,10.80
2022-12-22T08:33:09.874Z,10.80
2022-12-22T08:35:43.060Z,10.80
2022-12-22T08:38:14.773Z,10.80
2022-12-22T08:40:48.145Z,10.80
2022-12-22T08:43:19.075Z,10.80
2022-12-22T08:45:49.603Z,10.90
2022-12-22T08:48:19.965Z,10.80
2022-12-22T08:50:53.075Z,10.80
2022-12-22T08:54:03.371Z,10.80
2022-12-22T08:56:13.836Z,10.80
2022-12-22T08:58:44.212Z,10.80
2022-12-22T09:01:19.973Z,10.80
2022-12-22T09:03:54.038Z,10.80
2022-12-22T09:06:30.823Z,10.80
2022-12-22T09:09:07.389Z,10.80
2022-12-22T09:11:37.950Z,10.80
2022-12-22T09:14:08.830Z,10.80
2022-12-22T09:16:39.876Z,10.80
2022-12-22T09:19:10.747Z,10.80
2022-12-22T09:21:43.634Z,10.80
2022-12-22T09:24:14.161Z,10.80
2022-12-22T09:26:44.707Z,10.70
2022-12-22T09:29:15.942Z,10.70
2022-12-22T09:31:46.807Z,10.70
2022-12-22T09:34:18.593Z,10.70
2022-12-22T09:36:51.957Z,10.70
2022-12-22T09:39:28.358Z,10.70
2022-12-22T09:42:00.728Z,10.80
2022-12-22T09:44:34.633Z,10.80
2022-12-22T09:47:07.773Z,10.80
2022-12-22T09:49:38.228Z,10.80
2022-12-22T09:52:26.795Z,10.90
2022-12-22T09:54:59.366Z,10.90
2022-12-22T09:57:34.387Z,10.80
2022-12-22T10:00:17.116Z,10.90
2022-12-22T10:02:57.903Z,10.80
2022-12-22T10:05:38.629Z,10.70
2022-12-22T10:08:19.442Z,10.80
2022-12-22T10:10:49.833Z,10.80
2022-12-22T10:13:21.653Z,10.80
2022-12-22T10:15:53.338Z,10.80
2022-12-22T10:18:26.279Z,10.80
2022-12-22T10:21:12.484Z,10.90
2022-12-22T10:23:49.616Z,10.90
2022-12-22T10:26:29.559Z,10.90
2022-12-22T10:29:06.466Z,10.80
2022-12-22T10:31:39.952Z,10.80
2022-12-22T10:34:16.783Z,10.90
2022-12-22T10:36:52.163Z,10.80
2022-12-22T10:39:30.044Z,10.80
2022-12-22T10:42:04.853Z,10.80
2022-12-22T10:44:38.183Z,10.80
2022-12-22T10:47:17.883Z,10.70
2022-12-22T10:52:29.592Z,10.70
2022-12-22T10:55:21.975Z,10.60
2022-12-22T10:57:54.085Z,10.70
2022-12-22T11:00:32.063Z,10.60
2022-12-22T11:03:04.686Z,10.60
2022-12-22T11:05:36.139Z,10.60
2022-12-22T11:08:19.823Z,10.60
2022-12-22T11:10:59.545Z,10.60
2022-12-22T11:13:50.255Z,10.50
2022-12-22T11:16:26.638Z,10.50
2022-12-22T11:19:07.347Z,10.50
2022-12-22T11:21:44.316Z,10.40
2022-12-22T11:24:32.293Z,10.50
2022-12-22T11:27:20.126Z,10.50
2022-12-22T11:30:08.354Z,10.50
2022-12-22T11:33:05.722Z,10.50
2022-12-22T11:35:51.608Z,10.50
2022-12-22T11:38:31.421Z,10.60
2022-12-22T11:41:07.817Z,10.60
2022-12-22T11:43:54.564Z,10.60
2022-12-22T11:46:33.947Z,10.50
2022-12-22T11:49:39.891Z,10.50
2022-12-22T11:52:25.225Z,10.60
2022-12-22T11:55:21.765Z,10.60
2022-12-22T11:58:13.603Z,10.50
2022-12-22T12:01:13.963Z,10.50
2022-12-22T12:04:17.931Z,10.60
2022-12-22T12:07:07.485Z,10.60
2022-12-22T12:09:50.280Z,10.70
2022-12-22T12:12:29.805Z,10.60
2022-12-22T12:15:17.229Z,10.60
2022-12-22T12:18:14.671Z,10.60
2022-12-22T12:20:56.572Z,10.60
2022-12-22T12:23:47.878Z,10.60
2022-12-22T12:26:22.979Z,10.60
2022-12-22T12:29:06.826Z,10.60
2022-12-22T12:31:42.363Z,10.70
2022-12-22T12:34:18.820Z,10.60
2022-12-22T12:36:54.109Z,10.60
2022-12-22T12:39:32.519Z,10.60
2022-12-22T12:42:14.318Z,10.60
2022-12-22T12:44:46.109Z,10.60
2022-12-22T12:47:28.787Z,10.60
2022-12-22T12:50:44.025Z,10.50
2022-12-22T12:53:20.337Z,10.60
2022-12-22T12:55:59.751Z,10.60
2022-12-22T12:58:53.394Z,10.60
2022-12-22T13:01:57.381Z,10.60
2022-12-22T13:05:14.056Z,10.60
2022-12-22T13:08:09.813Z,10.70
2022-12-22T13:10:45.368Z,10.70
2022-12-22T13:13:33.695Z,10.70
2022-12-22T13:16:18.853Z,10.70
2022-12-22T13:18:51.321Z,10.70
2022-12-22T13:24:27.237Z,10.70
2022-12-22T13:27:08.355Z,10.70
2022-12-22T13:29:50.388Z,10.70
2022-12-22T13:32:30.602Z,10.60
2022-12-22T13:37:58.877Z,10.60
2022-12-22T13:40:31.229Z,10.60
2022-12-22T13:43:07.147Z,10.60
2022-12-22T13:45:41.591Z,10.60
2022-12-22T13:48:17.224Z,10.70
2022-12-22T13:50:50.425Z,10.50
2022-12-22T13:56:28.509Z,10.60
2022-12-22T13:59:02.852Z,10.60
2022-12-22T14:01:33.529Z,10.60
2022-12-22T14:04:08.075Z,10.60
2022-12-22T14:06:40.477Z,10.60
2022-12-22T14:09:16.195Z,10.60
2022-12-22T14:11:52.019Z,10.70
2022-12-22T14:14:29.048Z,10.70
2022-12-22T14:17:01.651Z,10.60
2022-12-22T14:19:36.306Z,10.70
2022-12-22T14:22:10.446Z,10.70
2022-12-22T14:24:46.937Z,10.70
2022-12-22T14:27:24.269Z,10.70
2022-12-22T14:29:58.028Z,10.70
2022-12-22T14:32:40.839Z,10.70
2022-12-22T14:35:27.662Z,10.60
2022-12-22T14:38:19.416Z,10.70
2022-12-22T14:40:56.391Z,10.70
2022-12-22T14:43:32.300Z,10.70
2022-12-22T14:46:11.490Z,10.80
2022-12-22T14:48:48.606Z,10.70
2022-12-22T14:51:20.478Z,10.80
2022-12-22T14:53:53.772Z,10.80
2022-12-22T14:56:25.338Z,10.80
2022-12-22T14:59:12.235Z,10.80
2022-12-22T15:02:00.717Z,10.80
2022-12-22T15:04:31.428Z,10.80
2022-12-22T15:07:45.791Z,10.80
2022-12-22T15:10:16.846Z,10.80
2022-12-22T15:12:48.280Z,10.80
2022-12-22T15:15:21.163Z,10.80
2022-12-22T15:17:56.503Z,10.80
2022-12-22T15:20:35.231Z,10.80
2022-12-22T15:23:14.874Z,10.80
2022-12-22T15:25:45.592Z,10.90
2022-12-22T15:28:16.042Z,10.90
2022-12-22T15:30:46.825Z,10.90
2022-12-22T15:33:21.549Z,10.90
2022-12-22T15:35:51.902Z,10.90
2022-12-22T15:38:24.073Z,10.90
2022-12-22T15:40:55.221Z,10.90
2022-12-22T15:46:19.236Z,10.90
2022-12-22T15:48:52.335Z,10.90
2022-12-22T15:51:27.582Z,11.00
2022-12-22T15:53:58.768Z,11.00
2022-12-22T15:56:31.472Z,11.00
2022-12-22T15:59:02.223Z,11.00
2022-12-22T16:01:32.581Z,11.00
2022-12-22T16:04:06.759Z,11.00
2022-12-22T16:06:37.237Z,11.00
2022-12-22T16:09:12.282Z,11.00
2022-12-22T16:11:42.856Z,11.00
2022-12-22T16:14:15.349Z,11.00
2022-12-22T16:16:47.272Z,11.10
2022-12-22T16:19:22.152Z,11.10
2022-12-22T16:21:56.048Z,11.10
2022-12-22T16:24:30.819Z,11.20
2022-12-22T16:27:01.703Z,11.10
2022-12-22T16:29:32.153Z,11.20
2022-12-22T16:32:18.352Z,11.20
2022-12-22T16:34:52.002Z,11.20
2022-12-22T16:37:22.466Z,11.20
2022-12-22T16:39:53.337Z,11.20
2022-12-22T16:45:16.990Z,11.20
2022-12-22T16:47:47.540Z,11.20
2022-12-22T16:50:27.800Z,11.20
2022-12-22T16:52:58.118Z,11.20
2022-12-22T16:55:28.502Z,11.20
2022-12-22T16:57:59.172Z,11.30
2022-12-22T17:00:31.355Z,11.30
2022-12-22T17:03:05.265Z,11.30
2022-12-22T17:05:44.450Z,11.30
2022-12-22T17:08:23.563Z,11.30
2022-12-22T17:10:54.801Z,11.30
2022-12-22T17:13:25.944Z,11.30
2022-12-22T17:15:56.318Z,11.30
2022-12-22T17:18:28.647Z,11.30
2022-12-22T17:21:04.497Z,11.30
2022-12-22T17:23:37.760Z,11.40
2022-12-22T17:26:11.269Z,11.30
2022-12-22T17:28:42.328Z,11.30
2022-12-22T17:31:17.549Z,11.40
2022-12-22T17:33:48.086Z,11.40
2022-12-22T17:36:33.586Z,11.40
2022-12-22T17:39:04.996Z,11.40
2022-12-22T17:41:35.569Z,11.40
2022-12-22T17:44:06.084Z,11.40
2022-12-22T17:46:36.449Z,11.40
2022-12-22T17:49:06.798Z,11.40
2022-12-22T17:51:40.296Z,11.50
2022-12-22T17:54:19.062Z,11.40
2022-12-22T17:56:49.415Z,11.40
2022-12-22T17:59:19.729Z,11.40
2022-12-22T18:01:50.673Z,11.50
2022-12-22T18:04:21.039Z,11.50
2022-12-22T18:06:54.272Z,11.50
2022-12-22T18:09:27.753Z,11.50
2022-12-22T18:11:58.146Z,11.50
2022-12-22T18:14:28.519Z,11.50
2022-12-22T18:16:58.977Z,11.50
2022-12-22T18:19:29.250Z,11.40
2022-12-22T18:22:02.362Z,11.40
2022-12-22T18:24:32.929Z,11.40
2022-12-22T18:27:03.360Z,11.40
2022-12-22T18:29:33.785Z,11.40
2022-12-22T18:32:04.289Z,11.40
2022-12-22T18:34:34.648Z,11.40
2022-12-22T18:37:10.200Z,11.40
2022-12-22T18:39:40.830Z,11.40
2022-12-22T18:42:21.989Z,11.40
2022-12-22T18:44:53.464Z,11.40
2022-12-22T18:47:23.912Z,11.40
2022-12-22T18:49:54.278Z,11.40
2022-12-22T18:52:27.675Z,11.40
2022-12-22T18:54:58.057Z,11.40
2022-12-22T18:57:28.406Z,11.40
2022-12-22T18:59:58.807Z,11.40
2022-12-22T19:02:31.374Z,11.40
2022-12-22T19:05:01.958Z,11.50
2022-12-22T19:07:35.021Z,11.40
2022-12-22T19:10:05.314Z,11.50
2022-12-22T19:12:35.783Z,11.50
2022-12-22T19:15:08.869Z,11.50
2022-12-22T19:17:39.338Z,11.40
2022-12-22T19:20:18.276Z,11.50
2022-12-22T19:22:52.647Z,11.50
2022-12-22T19:25:25.097Z,11.50
2022-12-22T19:27:57.955Z,11.40
2022-12-22T19:30:30.177Z,11.50
2022-12-22T19:33:03.779Z,11.40
2022-12-22T19:35:35.591Z,11.50
2022-12-22T19:38:28.296Z,11.50
2022-12-22T19:41:03.416Z,11.40
2022-12-22T19:43:34.573Z,11.40
2022-12-22T19:46:06.553Z,11.40
2022-12-22T19:48:36.985Z,11.40
2022-12-22T19:51:09.160Z,11.50
2022-12-22T19:53:43.896Z,11.50
2022-12-22T19:56:25.346Z,11.50
2022-12-22T19:58:57.437Z,11.50
2022-12-22T20:01:28.006Z,11.50
2022-12-22T20:03:58.969Z,11.50
2022-12-22T20:06:29.334Z,11.50
2022-12-22T20:09:03.448Z,11.50
2022-12-22T20:11:33.873Z,11.50
2022-12-22T20:14:04.307Z,11.50
2022-12-22T20:16:34.748Z,11.50
2022-12-22T20:19:05.293Z,11.50
2022-12-22T20:21:35.684Z,11.50
2022-12-22T20:24:09.936Z,11.50
2022-12-22T20:26:40.269Z,11.50
2022-12-22T20:29:14.759Z,11.50
2022-12-22T20:31:45.106Z,11.50
2022-12-22T20:34:15.659Z,11.50
2022-12-22T20:36:46.575Z,11.50
2022-12-22T20:39:20.804Z,11.50
2022-12-22T20:41:53.761Z,11.50
2022-12-22T20:44:25.268Z,11.50
2022-12-22T20:46:55.667Z,11.50
2022-12-22T20:49:26.189Z,11.50
2022-12-22T20:51:56.499Z,11.50
2022-12-22T20:54:29.524Z,11.50
2022-12-22T20:56:59.973Z,11.50
2022-12-22T20:59:30.460Z,11.50
2022-12-22T21:02:00.895Z,11.50
2022-12-22T21:04:31.386Z,11.50
2022-12-22T21:07:01.855Z,11.50
2022-12-22T21:09:35.916Z,11.50
2022-12-22T21:12:06.422Z,11.50
2022-12-22T21:14:36.775Z,11.50
2022-12-22T21:17:07.250Z,11.50
2022-12-22T21:19:37.677Z,11.50
2022-12-22T21:22:08.049Z,11.50
2022-12-22T21:24:42.003Z,11.50
2022-12-22T21:27:18.227Z,11.50
2022-12-22T21:29:48.683Z,11.50
2022-12-22T21:32:19.475Z,11.50
2022-12-22T21:34:49.849Z,11.50
2022-12-22T21:37:22.795Z,11.50
2022-12-22T21:39:55.720Z,11.50
2022-12-22T21:42:26.039Z,11.50
2022-12-22T21:44:57.175Z,11.50
2022-12-22T21:47:27.592Z,11.50
2022-12-22T21:49:58.051Z,11.50
2022-12-22T21:52:28.351Z,11.50
2022-12-22T21:55:01.344Z,11.50
2022-12-22T21:57:31.842Z,11.50
2022-12-22T22:00:02.247Z,11.50
2022-12-22T22:02:35.536Z,11.50
2022-12-22T22:05:06.149Z,11.50
2022-12-22T22:07:36.604Z,11.50
2022-12-22T22:10:11.030Z,11.50
2022-12-22T22:12:41.420Z,11.50
2022-12-22T22:15:12.954Z,11.50
2022-12-22T22:17:43.490Z,11.50
2022-12-22T22:20:17.065Z,11.50
2022-12-22T22:22:48.811Z,11.50
2022-12-22T22:25:22.651Z,11.50
2022-12-22T22:27:53.431Z,11.50
2022-12-22T22:30:25.526Z,11.50
2022-12-22T22:32:56.541Z,11.50
2022-12-22T22:35:27.930Z,11.40
2022-12-22T22:37:58.265Z,11.50
2022-12-22T22:40:31.321Z,11.50
2022-12-22T22:43:01.675Z,11.50
2022-12-22T22:45:32.070Z,11.50
2022-12-22T22:48:07.751Z,11.50
2022-12-22T22:50:42.975Z,11.40
2022-12-22T22:53:13.281Z,11.40
2022-12-22T22:55:46.197Z,11.50
2022-12-22T22:58:17.619Z,11.40
2022-12-22T23:00:47.960Z,11.40
2022-12-22T23:03:18.336Z,11.40
2022-12-22T23:05:48.917Z,11.40
2022-12-22T23:08:19.258Z,11.40
2022-12-22T23:10:54.938Z,11.40
2022-12-22T23:13:25.401Z,11.40
2022-12-22T23:16:00.016Z,11.50
2022-12-22T23:18:31.434Z,11.50
2022-12-22T23:21:02.550Z,11.50
2022-12-22T23:23:34.419Z,11.40
2022-12-22T23:26:08.032Z,11.50
2022-12-22T23:28:38.422Z,11.50
2022-12-22T23:31:13.907Z,11.40
2022-12-22T23:33:44.290Z,11.40
2022-12-22T23:36:14.851Z,11.50
2022-12-22T23:38:45.259Z,11.40
2022-12-22T23:41:18.219Z,11.40
2022-12-22T23:43:48.509Z,11.40
2022-12-22T23:46:20.395Z,11.40
2022-12-22T23:48:55.012Z,11.40
2022-12-22T23:51:27.402Z,11.40
2022-12-22T23:53:58.292Z,11.40
2022-12-22T23:56:31.642Z,11.40
2022-12-22T23:59:02.155Z,11.40
